createdAt,value
2023-03-27T00:01:38.561Z,99928.91
2023-03-27T00:04:09.062Z,99938.56
2023-03-27T00:06:37.707Z,99948.19
2023-03-27T00:09:08.328Z,99960.41
2023-03-27T00:11:36.960Z,99960.44
2023-03-27T00:14:05.567Z,99968.28
2023-03-27T00:16:33.907Z,99977.84
2023-03-27T00:19:03.934Z,99993.47
2023-03-27T00:21:32.499Z,99994.31
2023-03-27T00:24:00.894Z,100004.78
2023-03-27T00:26:30.554Z,100004.78
2023-03-27T00:28:59.112Z,100008.25
2023-03-27T00:31:27.451Z,100023.00
2023-03-27T00:33:56.022Z,100017.81
2023-03-27T00:36:26.363Z,100026.47
2023-03-27T00:38:54.856Z,100032.53
2023-03-27T00:41:23.489Z,100042.09
2023-03-27T00:43:54.354Z,100043.00
2023-03-27T00:46:35.846Z,100047.34
2023-03-27T00:49:10.171Z,100056.94
2023-03-27T00:51:42.100Z,100054.38
2023-03-27T00:54:11.713Z,100059.59
2023-03-27T00:56:40.290Z,100070.88
2023-03-27T00:59:13.105Z,100063.09
2023-03-27T01:01:43.691Z,100063.09
2023-03-27T01:04:12.542Z,100063.09
2023-03-27T01:06:44.615Z,100061.34
2023-03-27T01:09:20.334Z,100066.59
2023-03-27T01:12:02.093Z,100075.25
2023-03-27T01:14:39.153Z,100081.34
2023-03-27T01:17:27.281Z,100089.16
2023-03-27T01:20:53.866Z,100097.91
2023-03-27T01:24:15.598Z,100101.47
2023-03-27T01:27:07.992Z,100118.94
2023-03-27T01:29:57.665Z,100124.19
2023-03-27T01:33:25.186Z,100124.28
2023-03-27T01:36:19.268Z,100135.63
2023-03-27T01:39:32.645Z,100140.03
2023-03-27T01:42:09.685Z,100145.22
2023-03-27T01:44:46.566Z,100154.81
2023-03-27T01:47:31.365Z,100157.47
2023-03-27T01:50:09.895Z,100167.91
2023-03-27T01:52:41.899Z,100169.69
2023-03-27T01:55:19.093Z,100183.66
2023-03-27T01:57:53.068Z,100194.13
2023-03-27T02:00:24.576Z,100197.63
2023-03-27T02:03:11.143Z,100210.66
2023-03-27T02:05:44.114Z,100213.28
2023-03-27T02:08:18.364Z,100216.81
2023-03-27T02:10:52.493Z,100221.22
2023-03-27T02:13:26.981Z,100223.84
2023-03-27T02:15:58.885Z,100228.25
2023-03-27T02:18:33.294Z,100237.00
2023-03-27T02:21:03.133Z,100238.81
2023-03-27T02:23:33.717Z,100260.53
2023-03-27T02:26:03.619Z,100264.06
2023-03-27T02:28:55.289Z,100274.53
2023-03-27T02:31:41.110Z,100278.09
2023-03-27T02:34:39.279Z,100289.41
2023-03-27T02:37:19.224Z,100286.00
2023-03-27T02:40:15.649Z,100300.72
2023-03-27T02:43:02.183Z,100304.19
2023-03-27T02:45:39.300Z,100315.47
2023-03-27T02:48:16.172Z,100316.38
2023-03-27T02:50:51.249Z,100306.88
2023-03-27T02:53:23.698Z,100323.31
2023-03-27T02:55:57.218Z,100328.50
2023-03-27T02:58:35.406Z,100338.03
2023-03-27T03:01:19.165Z,100342.34
2023-03-27T03:04:11.487Z,100350.13
2023-03-27T03:07:06.561Z,100352.75
2023-03-27T03:09:40.685Z,100357.94
2023-03-27T03:12:10.768Z,100376.09
2023-03-27T03:14:45.406Z,100371.78
2023-03-27T03:17:15.063Z,100373.50
2023-03-27T03:19:43.487Z,100375.25
2023-03-27T03:22:11.984Z,100376.09
2023-03-27T03:24:43.744Z,100389.94
2023-03-27T03:27:15.597Z,100395.13
2023-03-27T03:29:51.850Z,100408.09
2023-03-27T03:32:22.894Z,100407.22
2023-03-27T03:34:53.577Z,100415.00
2023-03-27T03:37:22.266Z,100415.00
2023-03-27T03:39:52.086Z,100411.53
2023-03-27T03:42:22.377Z,100427.94
2023-03-27T03:44:54.203Z,100445.22
2023-03-27T03:47:24.411Z,100440.03
2023-03-27T03:49:52.728Z,100462.47
2023-03-27T03:52:21.291Z,100462.47
2023-03-27T03:54:49.851Z,100479.75
2023-03-27T03:57:18.395Z,100484.06
2023-03-27T04:00:01.059Z,100487.50
2023-03-27T04:02:45.500Z,100492.69
2023-03-27T04:05:17.064Z,100503.03
2023-03-27T04:07:45.962Z,100504.75
2023-03-27T04:10:33.207Z,100521.13
2023-03-27T04:13:05.180Z,100528.91
2023-03-27T04:15:39.312Z,100540.97
2023-03-27T04:18:10.837Z,100543.56
2023-03-27T04:20:41.223Z,100547.00
2023-03-27T04:23:13.845Z,100543.56
2023-03-27T04:25:42.654Z,100558.22
2023-03-27T04:28:16.678Z,100563.38
2023-03-27T04:30:50.793Z,100571.97
2023-03-27T04:33:31.530Z,100585.81
2023-03-27T04:36:14.668Z,100587.50
2023-03-27T04:38:50.361Z,100584.03
2023-03-27T04:41:19.342Z,100596.16
2023-03-27T04:43:47.862Z,100591.81
2023-03-27T04:46:17.504Z,100603.03
2023-03-27T04:48:46.310Z,100606.50
2023-03-27T04:51:32.479Z,100609.06
2023-03-27T04:54:04.772Z,100611.66
2023-03-27T04:56:35.085Z,100621.13
2023-03-27T04:59:06.361Z,100635.78
2023-03-27T05:01:36.353Z,100640.09
2023-03-27T05:04:26.276Z,100650.44
2023-03-27T05:07:12.112Z,100649.56
2023-03-27T05:09:40.807Z,100653.84
2023-03-27T05:12:10.702Z,100663.34
2023-03-27T05:14:49.485Z,100663.31
2023-03-27T05:17:40.706Z,100683.13
2023-03-27T05:20:14.442Z,100682.25
2023-03-27T05:22:43.559Z,100680.53
2023-03-27T05:25:24.527Z,100696.03
2023-03-27T05:27:54.916Z,100706.38
2023-03-27T05:30:27.366Z,100714.97
2023-03-27T05:33:13.929Z,100723.63
2023-03-27T05:35:43.205Z,100728.78
2023-03-27T05:38:12.522Z,100723.63
2023-03-27T05:40:47.512Z,100730.53
2023-03-27T05:43:18.962Z,100734.84
2023-03-27T05:45:47.276Z,100740.88
2023-03-27T05:48:17.361Z,100745.22
2023-03-27T05:50:46.862Z,100749.56
2023-03-27T05:53:20.768Z,100753.00
2023-03-27T05:56:17.194Z,100754.78
2023-03-27T05:58:54.561Z,100765.16
2023-03-27T06:01:24.072Z,100769.50
2023-03-27T06:03:56.420Z,100775.56
2023-03-27T06:06:41.840Z,100780.81
2023-03-27T06:09:12.615Z,100785.19
2023-03-27T06:11:44.841Z,100793.84
2023-03-27T06:14:13.480Z,100804.25
2023-03-27T06:17:06.398Z,100807.75
2023-03-27T06:19:46.678Z,100818.16
2023-03-27T06:22:15.302Z,100825.94
2023-03-27T06:24:45.656Z,100836.34
2023-03-27T06:27:20.529Z,100838.97
2023-03-27T06:29:49.359Z,100839.88
2023-03-27T06:32:17.897Z,100850.22
2023-03-27T06:34:53.439Z,100849.38
2023-03-27T06:37:55.729Z,100855.44
2023-03-27T06:40:28.459Z,100868.47
2023-03-27T06:43:03.816Z,100869.44
2023-03-27T06:45:42.951Z,100872.22
2023-03-27T06:48:21.392Z,100874.97
2023-03-27T06:50:54.005Z,100876.84
2023-03-27T06:53:27.900Z,100884.72
2023-03-27T06:55:58.433Z,100879.59
2023-03-27T06:58:28.505Z,100886.59
2023-03-27T07:00:57.186Z,100890.16
2023-03-27T07:03:37.500Z,100900.59
2023-03-27T07:06:27.083Z,100908.41
2023-03-27T07:09:01.786Z,100905.00
2023-03-27T07:11:31.968Z,100901.56
2023-03-27T07:14:05.178Z,100913.75
2023-03-27T07:16:33.848Z,100920.69
2023-03-27T07:19:02.750Z,100919.84
2023-03-27T07:21:35.268Z,100938.94
2023-03-27T07:24:03.684Z,100944.97
2023-03-27T07:26:34.665Z,100939.78
2023-03-27T07:29:10.517Z,100953.66
2023-03-27T07:31:55.752Z,100960.59
2023-03-27T07:34:49.097Z,100960.56
2023-03-27T07:37:50.482Z,100970.09
2023-03-27T07:40:51.115Z,100969.19
2023-03-27T07:43:45.794Z,100976.00
2023-03-27T07:46:14.507Z,100985.53
2023-03-27T07:48:43.056Z,100989.69
2023-03-27T07:51:17.719Z,100987.81
2023-03-27T07:53:49.154Z,100988.63
2023-03-27T07:56:23.375Z,100988.47
2023-03-27T07:59:06.815Z,100986.63
2023-03-27T08:01:35.706Z,100990.84
2023-03-27T08:04:05.578Z,100987.19
2023-03-27T08:06:36.114Z,100988.69
2023-03-27T08:09:08.425Z,101000.59
2023-03-27T08:11:37.505Z,101004.72
2023-03-27T08:14:07.745Z,101000.84
2023-03-27T08:16:37.203Z,101003.97
2023-03-27T08:19:06.525Z,101009.84
2023-03-27T08:21:39.905Z,101003.69
2023-03-27T08:24:11.141Z,101009.31
2023-03-27T08:26:59.641Z,101009.94
2023-03-27T08:29:28.190Z,101015.94
2023-03-27T08:31:56.768Z,101024.41
2023-03-27T08:34:26.434Z,101022.25
2023-03-27T08:36:54.944Z,101023.47
2023-03-27T08:39:26.260Z,101026.53
2023-03-27T08:42:03.982Z,101029.28
2023-03-27T08:44:38.369Z,101029.13
2023-03-27T08:47:20.614Z,101034.94
2023-03-27T08:50:26.298Z,101033.38
2023-03-27T08:53:15.590Z,101032.38
2023-03-27T08:55:46.168Z,101038.78
2023-03-27T08:58:34.520Z,101031.66
2023-03-27T09:01:31.275Z,101045.81
2023-03-27T09:04:17.402Z,101043.25
2023-03-27T09:07:00.868Z,101056.94
2023-03-27T09:09:46.700Z,101063.38
2023-03-27T09:12:39.547Z,101065.38
2023-03-27T09:15:13.846Z,101070.78
2023-03-27T09:17:49.813Z,101067.44
2023-03-27T09:20:24.346Z,101071.09
2023-03-27T09:22:59.666Z,101072.97
2023-03-27T09:26:01.056Z,101071.31
2023-03-27T09:29:03.028Z,101069.66
2023-03-27T09:31:40.664Z,101071.94
2023-03-27T09:34:21.387Z,101071.34
2023-03-27T09:36:49.970Z,101067.44
2023-03-27T09:39:24.126Z,101061.03
2023-03-27T09:42:16.535Z,101063.59
2023-03-27T09:44:51.338Z,101062.09
2023-03-27T09:47:25.356Z,101067.44
2023-03-27T09:50:02.033Z,101066.63
2023-03-27T09:52:48.379Z,101061.72
2023-03-27T09:55:31.008Z,101062.50
2023-03-27T09:58:15.220Z,101058.41
2023-03-27T10:00:46.418Z,101070.03
2023-03-27T10:03:18.549Z,101066.03
2023-03-27T10:06:07.734Z,101064.81
2023-03-27T10:08:50.361Z,101070.09
2023-03-27T10:11:28.539Z,101066.59
2023-03-27T10:14:11.834Z,101051.72
2023-03-27T10:16:42.581Z,101057.66
2023-03-27T10:19:25.218Z,101056.28
2023-03-27T10:21:56.390Z,101067.19
2023-03-27T10:24:34.429Z,101071.41
2023-03-27T10:27:20.036Z,101072.59
2023-03-27T10:30:30.836Z,101075.84
2023-03-27T10:33:29.699Z,101077.16
2023-03-27T10:36:12.415Z,101081.38
2023-03-27T10:38:43.984Z,101077.31
2023-03-27T10:41:37.576Z,101077.91
2023-03-27T10:44:14.923Z,101076.50
2023-03-27T10:46:50.558Z,101085.38
2023-03-27T10:49:32.343Z,101096.44
2023-03-27T10:52:16.868Z,101123.03
2023-03-27T10:55:30.269Z,101140.44
2023-03-27T10:58:05.472Z,101146.00
2023-03-27T11:00:43.416Z,101148.78
2023-03-27T11:03:28.071Z,101153.25
2023-03-27T11:06:07.251Z,101157.66
2023-03-27T11:08:53.002Z,101161.13
2023-03-27T11:11:30.636Z,101168.09
2023-03-27T11:14:05.679Z,101162.84
2023-03-27T11:16:39.323Z,101160.16
2023-03-27T11:19:39.163Z,101151.31
2023-03-27T11:22:33.328Z,101157.13
2023-03-27T11:25:14.183Z,101149.72
2023-03-27T11:27:48.371Z,101142.38
2023-03-27T11:30:39.146Z,101146.34
2023-03-27T11:33:28.657Z,101144.56
2023-03-27T11:36:17.556Z,101129.19
2023-03-27T11:39:02.851Z,101144.50
2023-03-27T11:41:32.444Z,101144.53
2023-03-27T11:44:04.026Z,101139.53
2023-03-27T11:47:36.760Z,101145.94
2023-03-27T11:50:32.534Z,101145.22
2023-03-27T11:53:25.105Z,101137.31
2023-03-27T11:56:38.707Z,101143.84
2023-03-27T11:59:54.598Z,101128.28
2023-03-27T12:02:50.059Z,101127.50
2023-03-27T12:05:34.179Z,101126.00
2023-03-27T12:08:13.964Z,101134.50
2023-03-27T12:10:50.439Z,101122.44
2023-03-27T12:14:17.742Z,101121.09
2023-03-27T12:17:22.510Z,101122.75
2023-03-27T12:20:51.961Z,101125.25
2023-03-27T12:23:40.070Z,101118.91
2023-03-27T12:27:05.313Z,101131.47
2023-03-27T12:30:07.750Z,101121.31
2023-03-27T12:33:00.328Z,101131.75
2023-03-27T12:35:32.780Z,101130.69
2023-03-27T12:38:04.100Z,101143.59
2023-03-27T12:40:41.845Z,101141.50
2023-03-27T12:43:29.449Z,101148.41
2023-03-27T12:46:31.643Z,101147.94
2023-03-27T12:49:05.266Z,101150.53
2023-03-27T12:51:44.427Z,101150.75
2023-03-27T12:54:26.833Z,101159.69
2023-03-27T12:57:06.605Z,101164.88
2023-03-27T12:59:39.316Z,101157.19
2023-03-27T13:02:56.352Z,101155.66
2023-03-27T13:05:44.892Z,101163.59
2023-03-27T13:08:49.670Z,101179.09
2023-03-27T13:11:58.171Z,101186.38
2023-03-27T13:15:18.543Z,101189.59
2023-03-27T13:18:10.894Z,101180.13
2023-03-27T13:20:49.317Z,101182.66
2023-03-27T13:23:35.294Z,101187.44
2023-03-27T13:26:23.702Z,101192.31
2023-03-27T13:28:54.426Z,101192.84
2023-03-27T13:32:02.005Z,101190.34
2023-03-27T13:34:43.551Z,101178.03
2023-03-27T13:37:54.333Z,101177.84
2023-03-27T13:40:36.507Z,101180.84
2023-03-27T13:43:23.900Z,101177.91
2023-03-27T13:46:01.738Z,101173.06
2023-03-27T13:49:22.170Z,101164.41
2023-03-27T13:53:06.467Z,101165.28
2023-03-27T13:56:44.973Z,101174.81
2023-03-27T13:59:59.873Z,101181.09
2023-03-27T14:03:34.946Z,101173.41
2023-03-27T14:06:45.594Z,101169.75
2023-03-27T14:09:27.426Z,101172.94
2023-03-27T14:12:26.398Z,101159.13
2023-03-27T14:15:33.533Z,101152.22
2023-03-27T14:19:06.834Z,101160.63
2023-03-27T14:21:53.416Z,101161.75
2023-03-27T14:24:33.639Z,101160.03
2023-03-27T14:27:18.466Z,101154.88
2023-03-27T14:29:49.463Z,101154.97
2023-03-27T14:32:19.360Z,101163.81
2023-03-27T14:34:54.328Z,101167.81
2023-03-27T14:37:44.852Z,101165.88
2023-03-27T14:40:31.758Z,101173.53
2023-03-27T14:43:07.928Z,101169.63
2023-03-27T14:45:41.119Z,101161.66
2023-03-27T14:48:22.477Z,101159.25
2023-03-27T14:50:55.860Z,101162.09
2023-03-27T14:53:31.266Z,101155.84
2023-03-27T14:56:30.402Z,101147.72
2023-03-27T14:59:02.002Z,101147.25
2023-03-27T15:01:42.205Z,101155.03
2023-03-27T15:04:14.049Z,101148.81
2023-03-27T15:06:44.353Z,101147.25
2023-03-27T15:09:24.306Z,101149.13
2023-03-27T15:12:12.586Z,101148.16
2023-03-27T15:14:42.354Z,101152.06
2023-03-27T15:17:15.812Z,101155.16
2023-03-27T15:19:48.996Z,101156.06
2023-03-27T15:22:24.350Z,101159.72
2023-03-27T15:24:57.526Z,101165.22
2023-03-27T15:27:31.702Z,101159.78
2023-03-27T15:30:04.566Z,101166.03
2023-03-27T15:32:42.549Z,101169.22
2023-03-27T15:35:17.990Z,101160.25
2023-03-27T15:37:46.767Z,101169.91
2023-03-27T15:40:42.775Z,101177.31
2023-03-27T15:43:30.905Z,101167.59
2023-03-27T15:46:15.262Z,101183.63
2023-03-27T15:48:45.565Z,101191.31
2023-03-27T15:51:28.607Z,101191.03
2023-03-27T15:53:57.622Z,101202.91
2023-03-27T15:56:29.550Z,101201.47
2023-03-27T15:59:03.354Z,101198.06
2023-03-27T16:01:36.155Z,101210.97
2023-03-27T16:04:08.913Z,101214.06
2023-03-27T16:06:40.850Z,101225.50
2023-03-27T16:09:24.538Z,101218.75
2023-03-27T16:11:55.127Z,101222.63
2023-03-27T16:14:31.224Z,101229.97
2023-03-27T16:17:19.630Z,101229.47
2023-03-27T16:19:54.786Z,101242.16
2023-03-27T16:22:29.128Z,101249.50
2023-03-27T16:24:58.628Z,101254.16
2023-03-27T16:27:32.699Z,101265.75
2023-03-27T16:30:02.762Z,101260.72
2023-03-27T16:32:31.721Z,101270.47
2023-03-27T16:35:01.834Z,101283.63
2023-03-27T16:37:30.522Z,101281.97
2023-03-27T16:39:59.152Z,101291.63
2023-03-27T16:42:27.371Z,101287.34
2023-03-27T16:44:56.137Z,101290.03
2023-03-27T16:47:25.962Z,101297.06
2023-03-27T16:50:10.450Z,101297.09
2023-03-27T16:52:39.534Z,101292.59
2023-03-27T16:55:09.185Z,101305.53
2023-03-27T16:57:37.841Z,101291.44
2023-03-27T17:00:11.648Z,101290.44
2023-03-27T17:02:41.433Z,101301.78
2023-03-27T17:05:10.913Z,101300.13
2023-03-27T17:07:41.650Z,101301.97
2023-03-27T17:10:11.174Z,101316.06
2023-03-27T17:12:39.485Z,101330.16
2023-03-27T17:15:10.111Z,101326.81
2023-03-27T17:17:39.975Z,101345.28
2023-03-27T17:20:09.876Z,101354.97
2023-03-27T17:22:38.425Z,101358.50
2023-03-27T17:25:09.876Z,101378.56
2023-03-27T17:27:38.449Z,101377.72
2023-03-27T17:30:08.445Z,101378.59
2023-03-27T17:32:37.103Z,101390.72
2023-03-27T17:35:08.096Z,101395.06
2023-03-27T17:37:36.913Z,101401.13
2023-03-27T17:40:09.848Z,101403.69
2023-03-27T17:42:38.976Z,101413.22
2023-03-27T17:45:08.117Z,101415.75
2023-03-27T17:47:36.423Z,101413.13
2023-03-27T17:50:07.894Z,101415.69
2023-03-27T17:52:36.123Z,101413.03
2023-03-27T17:55:04.716Z,101419.09
2023-03-27T17:57:33.322Z,101428.59
2023-03-27T18:00:06.548Z,101426.00
2023-03-27T18:02:41.265Z,101436.38
2023-03-27T18:05:11.172Z,101436.34
2023-03-27T18:07:39.718Z,101444.16
2023-03-27T18:10:12.539Z,101449.34
2023-03-27T18:12:41.042Z,101446.69
2023-03-27T18:15:10.481Z,101453.63
2023-03-27T18:17:39.127Z,101456.16
2023-03-27T18:20:11.068Z,101458.75
2023-03-27T18:22:40.238Z,101457.84
2023-03-27T18:25:10.772Z,101461.28
2023-03-27T18:27:40.874Z,101460.34
2023-03-27T18:30:12.229Z,101465.53
2023-03-27T18:32:42.744Z,101462.91
2023-03-27T18:35:15.271Z,101474.16
2023-03-27T18:37:45.021Z,101472.38
2023-03-27T18:40:18.984Z,101468.00
2023-03-27T18:42:47.588Z,101479.25
2023-03-27T18:45:17.943Z,101484.44
2023-03-27T18:47:46.479Z,101485.22
2023-03-27T18:50:16.714Z,101481.69
2023-03-27T18:52:45.373Z,101491.22
2023-03-27T18:55:13.670Z,101491.19
2023-03-27T18:57:44.722Z,101498.09
2023-03-27T19:00:18.385Z,101497.97
2023-03-27T19:02:47.869Z,101497.94
2023-03-27T19:05:18.149Z,101501.38
2023-03-27T19:07:46.924Z,101502.22
2023-03-27T19:10:15.262Z,101509.94
2023-03-27T19:12:47.289Z,101502.94
2023-03-27T19:15:36.887Z,101507.22
2023-03-27T19:18:30.063Z,101508.84
2023-03-27T19:21:16.247Z,101507.94
2023-03-27T19:23:49.418Z,101511.34
2023-03-27T19:26:21.563Z,101504.38
2023-03-27T19:28:50.127Z,101504.31
2023-03-27T19:31:18.389Z,101512.09
2023-03-27T19:33:46.969Z,101505.13
2023-03-27T19:36:17.075Z,101511.09
2023-03-27T19:38:45.851Z,101515.38
2023-03-27T19:41:14.172Z,101517.94
2023-03-27T19:43:42.717Z,101511.84
2023-03-27T19:48:42.448Z,101523.00
2023-03-27T19:51:19.679Z,101517.72
2023-03-27T19:53:52.014Z,101529.84
2023-03-27T19:56:23.163Z,101528.91
2023-03-27T19:58:52.212Z,101534.94
2023-03-27T20:01:21.355Z,101543.50
2023-03-27T20:03:50.165Z,101531.38
2023-03-27T20:06:20.482Z,101547.84
2023-03-27T20:08:49.245Z,101552.13
2023-03-27T20:11:18.126Z,101562.50
2023-03-27T20:13:56.095Z,101555.63
2023-03-27T20:16:27.229Z,101558.13
2023-03-27T20:19:04.512Z,101556.44
2023-03-27T20:21:37.506Z,101564.19
2023-03-27T20:24:10.377Z,101555.50
2023-03-27T20:26:47.982Z,101565.00
2023-03-27T20:29:21.782Z,101558.94
2023-03-27T20:31:50.407Z,101561.56
2023-03-27T20:34:22.390Z,101565.00
2023-03-27T20:36:54.794Z,101562.47
2023-03-27T20:39:44.636Z,101562.47
2023-03-27T20:42:15.868Z,101562.47
2023-03-27T20:44:45.667Z,101570.28
2023-03-27T20:47:18.971Z,101563.38
2023-03-27T20:49:48.810Z,101569.38
2023-03-27T20:52:22.551Z,101561.59
2023-03-27T20:54:51.662Z,101564.19
2023-03-27T20:57:22.503Z,101566.78
2023-03-27T20:59:51.194Z,101571.06
2023-03-27T21:02:23.465Z,101567.59
2023-03-27T21:04:52.288Z,101570.16
2023-03-27T21:07:21.814Z,101572.69
2023-03-27T21:09:50.518Z,101571.78
2023-03-27T21:12:19.034Z,101575.19
2023-03-27T21:14:47.594Z,101582.97
2023-03-27T21:17:15.995Z,101588.94
2023-03-27T21:19:44.503Z,101588.94
2023-03-27T21:22:12.988Z,101588.84
2023-03-27T21:24:43.069Z,101600.94
2023-03-27T21:27:11.572Z,101603.47
2023-03-27T21:29:40.132Z,101600.81
2023-03-27T21:32:09.173Z,101592.97
2023-03-27T21:34:37.869Z,101597.22
2023-03-27T21:37:06.128Z,101592.84
2023-03-27T21:39:34.777Z,101604.94
2023-03-27T21:42:04.650Z,101607.47
2023-03-27T21:44:33.163Z,101610.88
2023-03-27T21:47:01.649Z,101616.88
2023-03-27T21:49:30.251Z,101607.34
2023-03-27T21:51:58.738Z,101604.69
2023-03-27T21:54:27.238Z,101605.50
2023-03-27T21:56:55.789Z,101611.50
2023-03-27T21:59:27.149Z,101614.97
2023-03-27T22:01:56.034Z,101608.81
2023-03-27T22:04:24.547Z,101609.66
2023-03-27T22:06:53.442Z,101611.31
2023-03-27T22:09:21.847Z,101605.22
2023-03-27T22:11:50.549Z,101607.75
2023-03-27T22:14:19.055Z,101612.88
2023-03-27T22:16:48.760Z,101609.38
2023-03-27T22:19:17.270Z,101614.50
2023-03-27T22:21:45.989Z,101621.34
2023-03-27T22:24:14.542Z,101621.28
2023-03-27T22:26:43.224Z,101619.44
2023-03-27T22:29:11.773Z,101629.75
2023-03-27T22:31:40.382Z,101628.84
2023-03-27T22:34:10.616Z,101633.13
2023-03-27T22:36:39.296Z,101634.78
2023-03-27T22:39:07.809Z,101636.50
2023-03-27T22:41:36.468Z,101641.63
2023-03-27T22:44:05.047Z,101647.59
2023-03-27T22:46:34.485Z,101642.34
2023-03-27T22:49:03.035Z,101659.63
2023-03-27T22:51:33.358Z,101658.69
2023-03-27T22:54:01.904Z,101660.38
2023-03-27T22:56:30.286Z,101668.13
2023-03-27T22:58:58.803Z,101670.66
2023-03-27T23:01:27.403Z,101669.81
2023-03-27T23:03:56.047Z,101675.78
2023-03-27T23:06:25.190Z,101682.63
2023-03-27T23:08:54.766Z,101679.16
2023-03-27T23:11:23.262Z,101683.41
2023-03-27T23:13:51.855Z,101694.56
2023-03-27T23:16:20.251Z,101689.31
2023-03-27T23:18:48.737Z,101695.28
2023-03-27T23:21:17.865Z,101687.38
2023-03-27T23:23:47.514Z,101694.19
2023-03-27T23:26:18.040Z,101700.09
2023-03-27T23:28:46.624Z,101694.84
2023-03-27T23:31:17.365Z,101701.69
2023-03-27T23:33:49.193Z,101703.41
2023-03-27T23:36:21.487Z,101702.53
2023-03-27T23:38:51.434Z,101702.53
2023-03-27T23:41:21.634Z,101711.19
2023-03-27T23:43:50.424Z,101704.28
2023-03-27T23:46:19.109Z,101712.06
2023-03-27T23:48:47.682Z,101708.56
2023-03-27T23:51:17.385Z,101714.56
2023-03-27T23:53:46.105Z,101712.84
2023-03-27T23:56:14.730Z,101721.44
2023-03-27T23:58:44.427Z,101717.94
